Terminal Aerodrome Forecast
Issued by NWS

Home | Current Version | Previous Version | Text Only | Print | Product List | Glossary On
Versions: 1 2 3 4 5 6 7 8 9 10 11 12 13 14 15 16 17 18 19 20 21
000
FTUS44 KLZK 181100
TAFLIT
TAF
KLIT 181137Z 1812/1912 00000KT 4SM BR BKN120
      TEMPO 1812/1814 2SM BR SCT005
     FM181400 10004KT P6SM SCT050 BKN120
     FM181800 11005KT P6SM VCTS BKN050CB
     FM190000 VRB03KT P6SM BKN250=

USA.gov is the U.S. government's official web portal to all federal, state and local government web resources and services.